sensor_id;sensor_type;location;lat;lon;timestamp;P1;durP1;ratioP1;P2;durP2;ratioP2
71166;SDS011;58864;45.928;20.078;2023-03-24T00:02:22;22.23;;;11.60;;
71166;SDS011;58864;45.928;20.078;2023-03-24T00:04:47;21.17;;;11.27;;
71166;SDS011;58864;45.928;20.078;2023-03-24T00:07:15;21.02;;;11.70;;
71166;SDS011;58864;45.928;20.078;2023-03-24T00:09:40;21.52;;;11.93;;
71166;SDS011;58864;45.928;20.078;2023-03-24T00:12:05;20.37;;;11.23;;
71166;SDS011;58864;45.928;20.078;2023-03-24T00:14:29;21.40;;;11.45;;
71166;SDS011;58864;45.928;20.078;2023-03-24T00:16:54;22.80;;;12.03;;
71166;SDS011;58864;45.928;20.078;2023-03-24T00:19:21;22.20;;;12.18;;
71166;SDS011;58864;45.928;20.078;2023-03-24T00:21:45;19.73;;;11.33;;
71166;SDS011;58864;45.928;20.078;2023-03-24T00:24:10;21.37;;;11.73;;
71166;SDS011;58864;45.928;20.078;2023-03-24T00:26:36;21.27;;;11.73;;
71166;SDS011;58864;45.928;20.078;2023-03-24T00:29:03;26.25;;;12.75;;
71166;SDS011;58864;45.928;20.078;2023-03-24T00:31:29;23.05;;;12.27;;
71166;SDS011;58864;45.928;20.078;2023-03-24T00:33:54;22.37;;;12.60;;
71166;SDS011;58864;45.928;20.078;2023-03-24T00:36:19;25.63;;;13.07;;
71166;SDS011;58864;45.928;20.078;2023-03-24T00:38:45;20.80;;;12.70;;
71166;SDS011;58864;45.928;20.078;2023-03-24T00:41:13;26.00;;;12.88;;
71166;SDS011;58864;45.928;20.078;2023-03-24T00:43:37;21.67;;;13.00;;
71166;SDS011;58864;45.928;20.078;2023-03-24T00:46:03;25.90;;;13.52;;
71166;SDS011;58864;45.928;20.078;2023-03-24T00:48:30;27.95;;;13.80;;
71166;SDS011;58864;45.928;20.078;2023-03-24T00:50:55;27.17;;;14.43;;
71166;SDS011;58864;45.928;20.078;2023-03-24T00:53:20;27.15;;;14.00;;
71166;SDS011;58864;45.928;20.078;2023-03-24T00:55:52;28.08;;;14.55;;
71166;SDS011;58864;45.928;20.078;2023-03-24T00:58:17;28.33;;;14.40;;
71166;SDS011;58864;45.928;20.078;2023-03-24T01:00:46;28.08;;;14.75;;
71166;SDS011;58864;45.928;20.078;2023-03-24T01:03:13;26.13;;;14.48;;
71166;SDS011;58864;45.928;20.078;2023-03-24T01:05:38;25.55;;;14.27;;
71166;SDS011;58864;45.928;20.078;2023-03-24T01:08:03;26.83;;;14.90;;
71166;SDS011;58864;45.928;20.078;2023-03-24T01:10:30;25.30;;;14.63;;
71166;SDS011;58864;45.928;20.078;2023-03-24T01:12:57;29.77;;;14.80;;
71166;SDS011;58864;45.928;20.078;2023-03-24T01:15:24;28.00;;;14.57;;
71166;SDS011;58864;45.928;20.078;2023-03-24T01:17:50;25.65;;;14.95;;
71166;SDS011;58864;45.928;20.078;2023-03-24T01:20:16;27.88;;;13.98;;
71166;SDS011;58864;45.928;20.078;2023-03-24T01:22:41;29.77;;;15.57;;
71166;SDS011;58864;45.928;20.078;2023-03-24T01:25:07;31.23;;;15.55;;
71166;SDS011;58864;45.928;20.078;2023-03-24T01:27:35;32.60;;;16.20;;
71166;SDS011;58864;45.928;20.078;2023-03-24T01:30:00;28.83;;;15.43;;
71166;SDS011;58864;45.928;20.078;2023-03-24T01:32:25;30.53;;;15.50;;
71166;SDS011;58864;45.928;20.078;2023-03-24T01:34:50;31.88;;;17.33;;
71166;SDS011;58864;45.928;20.078;2023-03-24T01:37:14;31.13;;;15.60;;
71166;SDS011;58864;45.928;20.078;2023-03-24T01:39:39;28.70;;;15.43;;
71166;SDS011;58864;45.928;20.078;2023-03-24T01:42:03;31.67;;;16.17;;
71166;SDS011;58864;45.928;20.078;2023-03-24T01:44:32;37.83;;;16.83;;
71166;SDS011;58864;45.928;20.078;2023-03-24T01:47:01;35.83;;;15.55;;
71166;SDS011;58864;45.928;20.078;2023-03-24T01:49:28;35.28;;;16.20;;
71166;SDS011;58864;45.928;20.078;2023-03-24T01:51:56;33.85;;;15.68;;
71166;SDS011;58864;45.928;20.078;2023-03-24T01:54:31;35.67;;;16.30;;
71166;SDS011;58864;45.928;20.078;2023-03-24T01:57:03;32.97;;;15.87;;
71166;SDS011;58864;45.928;20.078;2023-03-24T01:59:32;36.53;;;16.23;;
71166;SDS011;58864;45.928;20.078;2023-03-24T02:01:59;30.85;;;15.35;;
71166;SDS011;58864;45.928;20.078;2023-03-24T02:04:27;34.63;;;14.93;;
71166;SDS011;58864;45.928;20.078;2023-03-24T02:06:53;33.70;;;14.90;;
71166;SDS011;58864;45.928;20.078;2023-03-24T02:09:18;25.00;;;12.87;;
71166;SDS011;58864;45.928;20.078;2023-03-24T02:11:42;26.93;;;12.73;;
71166;SDS011;58864;45.928;20.078;2023-03-24T02:14:08;28.88;;;12.65;;
71166;SDS011;58864;45.928;20.078;2023-03-24T02:55:34;27.85;;;13.32;;
71166;SDS011;58864;45.928;20.078;2023-03-24T02:58:07;27.48;;;13.18;;
71166;SDS011;58864;45.928;20.078;2023-03-24T03:05:45;26.23;;;13.77;;
71166;SDS011;58864;45.928;20.078;2023-03-24T03:08:30;27.15;;;14.50;;
71166;SDS011;58864;45.928;20.078;2023-03-24T03:10:56;28.20;;;14.15;;
71166;SDS011;58864;45.928;20.078;2023-03-24T03:13:26;36.38;;;16.90;;
71166;SDS011;58864;45.928;20.078;2023-03-24T03:15:53;41.08;;;18.10;;
71166;SDS011;58864;45.928;20.078;2023-03-24T03:18:20;38.80;;;15.93;;
71166;SDS011;58864;45.928;20.078;2023-03-24T03:20:52;43.35;;;18.52;;
71166;SDS011;58864;45.928;20.078;2023-03-24T03:23:22;45.63;;;18.35;;
71166;SDS011;58864;45.928;20.078;2023-03-24T03:25:49;33.42;;;15.73;;
71166;SDS011;58864;45.928;20.078;2023-03-24T03:28:17;33.17;;;14.93;;
71166;SDS011;58864;45.928;20.078;2023-03-24T03:30:46;26.60;;;13.37;;
71166;SDS011;58864;45.928;20.078;2023-03-24T03:33:15;26.35;;;13.82;;
71166;SDS011;58864;45.928;20.078;2023-03-24T03:35:50;29.27;;;13.57;;
71166;SDS011;58864;45.928;20.078;2023-03-24T03:40:59;29.92;;;13.48;;
71166;SDS011;58864;45.928;20.078;2023-03-24T03:43:26;27.73;;;12.93;;
71166;SDS011;58864;45.928;20.078;2023-03-24T03:45:51;29.90;;;14.27;;
71166;SDS011;58864;45.928;20.078;2023-03-24T03:48:16;33.72;;;15.43;;
71166;SDS011;58864;45.928;20.078;2023-03-24T03:50:53;30.77;;;15.37;;
71166;SDS011;58864;45.928;20.078;2023-03-24T03:53:22;30.02;;;14.43;;
71166;SDS011;58864;45.928;20.078;2023-03-24T03:55:50;27.42;;;13.80;;
71166;SDS011;58864;45.928;20.078;2023-03-24T03:58:15;25.15;;;13.60;;
71166;SDS011;58864;45.928;20.078;2023-03-24T04:00:40;28.47;;;13.50;;
71166;SDS011;58864;45.928;20.078;2023-03-24T04:06:00;28.35;;;13.60;;
71166;SDS011;58864;45.928;20.078;2023-03-24T04:08:35;24.50;;;12.98;;
71166;SDS011;58864;45.928;20.078;2023-03-24T04:24:57;23.58;;;12.18;;
71166;SDS011;58864;45.928;20.078;2023-03-24T04:27:33;24.50;;;13.40;;
71166;SDS011;58864;45.928;20.078;2023-03-24T04:33:02;29.50;;;14.07;;
71166;SDS011;58864;45.928;20.078;2023-03-24T04:35:30;26.80;;;13.30;;
71166;SDS011;58864;45.928;20.078;2023-03-24T04:38:02;25.92;;;13.13;;
71166;SDS011;58864;45.928;20.078;2023-03-24T04:40:32;33.70;;;14.73;;
71166;SDS011;58864;45.928;20.078;2023-03-24T04:43:00;31.85;;;15.00;;
71166;SDS011;58864;45.928;20.078;2023-03-24T04:45:27;27.15;;;14.35;;
71166;SDS011;58864;45.928;20.078;2023-03-24T04:47:56;25.83;;;12.47;;
71166;SDS011;58864;45.928;20.078;2023-03-24T04:50:32;29.92;;;14.48;;
71166;SDS011;58864;45.928;20.078;2023-03-24T04:52:59;27.45;;;13.90;;
71166;SDS011;58864;45.928;20.078;2023-03-24T04:58:13;27.63;;;12.90;;
71166;SDS011;58864;45.928;20.078;2023-03-24T05:00:38;29.35;;;13.38;;
71166;SDS011;58864;45.928;20.078;2023-03-24T05:03:02;26.33;;;13.30;;
71166;SDS011;58864;45.928;20.078;2023-03-24T05:05:27;29.48;;;13.45;;
71166;SDS011;58864;45.928;20.078;2023-03-24T05:07:51;28.37;;;13.17;;
71166;SDS011;58864;45.928;20.078;2023-03-24T05:10:16;25.80;;;13.20;;
71166;SDS011;58864;45.928;20.078;2023-03-24T05:12:42;28.63;;;13.50;;
71166;SDS011;58864;45.928;20.078;2023-03-24T05:15:06;24.98;;;12.57;;
71166;SDS011;58864;45.928;20.078;2023-03-24T05:17:32;29.73;;;13.33;;
71166;SDS011;58864;45.928;20.078;2023-03-24T05:19:56;27.10;;;13.25;;
71166;SDS011;58864;45.928;20.078;2023-03-24T05:22:20;29.33;;;13.67;;
71166;SDS011;58864;45.928;20.078;2023-03-24T05:24:45;26.10;;;12.77;;
71166;SDS011;58864;45.928;20.078;2023-03-24T05:27:09;28.33;;;12.70;;
71166;SDS011;58864;45.928;20.078;2023-03-24T05:29:34;24.67;;;12.48;;
71166;SDS011;58864;45.928;20.078;2023-03-24T05:31:58;28.13;;;13.67;;
71166;SDS011;58864;45.928;20.078;2023-03-24T05:34:23;25.43;;;13.23;;
71166;SDS011;58864;45.928;20.078;2023-03-24T05:36:47;28.45;;;14.05;;
71166;SDS011;58864;45.928;20.078;2023-03-24T05:39:12;26.47;;;13.20;;
71166;SDS011;58864;45.928;20.078;2023-03-24T05:41:36;27.37;;;14.20;;
71166;SDS011;58864;45.928;20.078;2023-03-24T05:44:00;29.13;;;14.30;;
71166;SDS011;58864;45.928;20.078;2023-03-24T05:46:25;30.00;;;13.40;;
71166;SDS011;58864;45.928;20.078;2023-03-24T05:48:49;26.73;;;13.77;;
71166;SDS011;58864;45.928;20.078;2023-03-24T05:51:14;32.23;;;13.87;;
71166;SDS011;58864;45.928;20.078;2023-03-24T05:53:39;27.20;;;12.43;;
71166;SDS011;58864;45.928;20.078;2023-03-24T05:56:03;26.73;;;12.73;;
71166;SDS011;58864;45.928;20.078;2023-03-24T05:58:28;27.77;;;13.50;;
71166;SDS011;58864;45.928;20.078;2023-03-24T06:00:53;28.37;;;14.40;;
71166;SDS011;58864;45.928;20.078;2023-03-24T06:03:18;33.77;;;15.90;;
71166;SDS011;58864;45.928;20.078;2023-03-24T06:05:42;33.03;;;15.47;;
71166;SDS011;58864;45.928;20.078;2023-03-24T06:08:08;28.15;;;13.82;;
71166;SDS011;58864;45.928;20.078;2023-03-24T06:10:34;28.37;;;12.87;;
71166;SDS011;58864;45.928;20.078;2023-03-24T06:12:59;29.75;;;12.40;;
71166;SDS011;58864;45.928;20.078;2023-03-24T06:15:24;26.05;;;12.15;;
71166;SDS011;58864;45.928;20.078;2023-03-24T06:17:50;24.50;;;12.07;;
71166;SDS011;58864;45.928;20.078;2023-03-24T06:20:18;23.05;;;12.40;;
71166;SDS011;58864;45.928;20.078;2023-03-24T06:22:43;23.75;;;12.23;;
71166;SDS011;58864;45.928;20.078;2023-03-24T06:25:10;29.63;;;12.07;;
71166;SDS011;58864;45.928;20.078;2023-03-24T06:27:36;28.63;;;14.00;;
71166;SDS011;58864;45.928;20.078;2023-03-24T06:30:01;29.23;;;12.30;;
71166;SDS011;58864;45.928;20.078;2023-03-24T06:32:27;72.28;;;28.65;;
71166;SDS011;58864;45.928;20.078;2023-03-24T06:34:53;66.57;;;26.40;;
71166;SDS011;58864;45.928;20.078;2023-03-24T06:37:18;43.55;;;20.30;;
71166;SDS011;58864;45.928;20.078;2023-03-24T06:39:44;30.60;;;14.90;;
71166;SDS011;58864;45.928;20.078;2023-03-24T06:42:09;32.30;;;15.60;;
71166;SDS011;58864;45.928;20.078;2023-03-24T06:44:33;45.43;;;18.33;;
71166;SDS011;58864;45.928;20.078;2023-03-24T06:46:58;32.67;;;14.68;;
71166;SDS011;58864;45.928;20.078;2023-03-24T06:49:23;27.73;;;12.20;;
71166;SDS011;58864;45.928;20.078;2023-03-24T06:51:48;36.47;;;14.80;;
71166;SDS011;58864;45.928;20.078;2023-03-24T06:54:12;25.00;;;12.90;;
71166;SDS011;58864;45.928;20.078;2023-03-24T06:56:36;23.93;;;13.00;;
71166;SDS011;58864;45.928;20.078;2023-03-24T06:59:01;24.37;;;12.13;;
71166;SDS011;58864;45.928;20.078;2023-03-24T07:01:25;21.90;;;12.20;;
71166;SDS011;58864;45.928;20.078;2023-03-24T07:03:50;26.57;;;12.57;;
71166;SDS011;58864;45.928;20.078;2023-03-24T07:06:14;22.73;;;11.97;;
71166;SDS011;58864;45.928;20.078;2023-03-24T07:08:39;25.30;;;11.85;;
71166;SDS011;58864;45.928;20.078;2023-03-24T07:11:04;26.33;;;13.53;;
71166;SDS011;58864;45.928;20.078;2023-03-24T07:13:30;25.15;;;13.20;;
71166;SDS011;58864;45.928;20.078;2023-03-24T07:15:55;25.43;;;12.97;;
71166;SDS011;58864;45.928;20.078;2023-03-24T07:18:19;25.47;;;12.00;;
71166;SDS011;58864;45.928;20.078;2023-03-24T07:20:44;22.77;;;11.18;;
71166;SDS011;58864;45.928;20.078;2023-03-24T07:23:09;19.83;;;10.80;;
71166;SDS011;58864;45.928;20.078;2023-03-24T07:25:33;20.97;;;11.07;;
71166;SDS011;58864;45.928;20.078;2023-03-24T07:27:58;22.38;;;11.23;;
71166;SDS011;58864;45.928;20.078;2023-03-24T07:30:23;20.53;;;10.77;;
71166;SDS011;58864;45.928;20.078;2023-03-24T07:32:47;22.15;;;11.40;;
71166;SDS011;58864;45.928;20.078;2023-03-24T07:35:12;20.13;;;10.70;;
71166;SDS011;58864;45.928;20.078;2023-03-24T07:40:13;17.73;;;10.30;;
71166;SDS011;58864;45.928;20.078;2023-03-24T07:42:42;18.23;;;10.07;;
71166;SDS011;58864;45.928;20.078;2023-03-24T07:45:08;22.05;;;11.65;;
71166;SDS011;58864;45.928;20.078;2023-03-24T07:47:33;19.75;;;11.00;;
71166;SDS011;58864;45.928;20.078;2023-03-24T07:49:58;20.57;;;11.53;;
71166;SDS011;58864;45.928;20.078;2023-03-24T07:52:22;21.23;;;12.23;;
71166;SDS011;58864;45.928;20.078;2023-03-24T07:54:47;22.80;;;12.27;;
71166;SDS011;58864;45.928;20.078;2023-03-24T07:57:11;26.67;;;10.70;;
71166;SDS011;58864;45.928;20.078;2023-03-24T07:59:36;19.43;;;11.07;;
71166;SDS011;58864;45.928;20.078;2023-03-24T08:02:00;22.00;;;11.43;;
71166;SDS011;58864;45.928;20.078;2023-03-24T08:04:25;23.87;;;11.50;;
71166;SDS011;58864;45.928;20.078;2023-03-24T08:06:52;21.10;;;11.40;;
71166;SDS011;58864;45.928;20.078;2023-03-24T08:09:17;22.47;;;10.20;;
71166;SDS011;58864;45.928;20.078;2023-03-24T08:11:41;21.15;;;10.75;;
71166;SDS011;58864;45.928;20.078;2023-03-24T08:14:06;18.33;;;10.17;;
71166;SDS011;58864;45.928;20.078;2023-03-24T08:16:30;20.08;;;10.65;;
71166;SDS011;58864;45.928;20.078;2023-03-24T08:18:55;18.23;;;10.73;;
71166;SDS011;58864;45.928;20.078;2023-03-24T08:21:23;21.10;;;10.38;;
71166;SDS011;58864;45.928;20.078;2023-03-24T08:23:48;18.70;;;10.90;;
71166;SDS011;58864;45.928;20.078;2023-03-24T08:26:13;18.53;;;10.10;;
71166;SDS011;58864;45.928;20.078;2023-03-24T08:28:38;20.52;;;10.73;;
71166;SDS011;58864;45.928;20.078;2023-03-24T08:31:03;17.93;;;10.03;;
71166;SDS011;58864;45.928;20.078;2023-03-24T08:33:28;18.75;;;10.60;;
71166;SDS011;58864;45.928;20.078;2023-03-24T08:35:52;18.38;;;10.90;;
71166;SDS011;58864;45.928;20.078;2023-03-24T08:38:21;16.93;;;9.80;;
71166;SDS011;58864;45.928;20.078;2023-03-24T08:40:46;22.02;;;9.88;;
71166;SDS011;58864;45.928;20.078;2023-03-24T08:43:13;16.08;;;8.95;;
71166;SDS011;58864;45.928;20.078;2023-03-24T08:45:40;14.82;;;9.52;;
71166;SDS011;58864;45.928;20.078;2023-03-24T08:48:05;19.80;;;10.00;;
71166;SDS011;58864;45.928;20.078;2023-03-24T08:50:36;14.93;;;8.75;;
71166;SDS011;58864;45.928;20.078;2023-03-24T08:53:02;21.35;;;9.45;;
71166;SDS011;58864;45.928;20.078;2023-03-24T08:55:27;17.17;;;9.15;;
71166;SDS011;58864;45.928;20.078;2023-03-24T08:57:51;15.73;;;8.87;;
71166;SDS011;58864;45.928;20.078;2023-03-24T09:00:17;22.02;;;9.23;;
71166;SDS011;58864;45.928;20.078;2023-03-24T09:02:43;14.53;;;8.93;;
71166;SDS011;58864;45.928;20.078;2023-03-24T09:05:09;22.35;;;9.50;;
71166;SDS011;58864;45.928;20.078;2023-03-24T09:07:34;16.35;;;8.55;;
71166;SDS011;58864;45.928;20.078;2023-03-24T09:09:59;14.23;;;8.13;;
71166;SDS011;58864;45.928;20.078;2023-03-24T09:12:24;16.50;;;8.88;;
71166;SDS011;58864;45.928;20.078;2023-03-24T09:14:49;14.47;;;8.27;;
71166;SDS011;58864;45.928;20.078;2023-03-24T09:17:13;15.07;;;8.10;;
71166;SDS011;58864;45.928;20.078;2023-03-24T09:19:38;17.50;;;8.55;;
71166;SDS011;58864;45.928;20.078;2023-03-24T09:22:03;15.80;;;8.43;;
71166;SDS011;58864;45.928;20.078;2023-03-24T09:24:27;16.50;;;8.30;;
71166;SDS011;58864;45.928;20.078;2023-03-24T09:26:51;19.73;;;8.90;;
71166;SDS011;58864;45.928;20.078;2023-03-24T09:29:16;16.67;;;7.97;;
71166;SDS011;58864;45.928;20.078;2023-03-24T09:31:41;14.57;;;8.50;;
71166;SDS011;58864;45.928;20.078;2023-03-24T09:34:06;14.23;;;7.87;;
71166;SDS011;58864;45.928;20.078;2023-03-24T09:36:30;16.33;;;7.40;;
71166;SDS011;58864;45.928;20.078;2023-03-24T09:38:54;12.63;;;7.23;;
71166;SDS011;58864;45.928;20.078;2023-03-24T09:41:26;11.37;;;6.87;;
71166;SDS011;58864;45.928;20.078;2023-03-24T09:46:23;12.17;;;6.90;;
71166;SDS011;58864;45.928;20.078;2023-03-24T09:48:53;9.68;;;5.82;;
71166;SDS011;58864;45.928;20.078;2023-03-24T09:53:50;13.02;;;7.00;;
71166;SDS011;58864;45.928;20.078;2023-03-24T09:56:37;10.50;;;5.57;;
71166;SDS011;58864;45.928;20.078;2023-03-24T10:01:35;10.93;;;5.80;;
71166;SDS011;58864;45.928;20.078;2023-03-24T10:04:00;12.97;;;6.17;;
71166;SDS011;58864;45.928;20.078;2023-03-24T10:06:27;13.25;;;5.90;;
71166;SDS011;58864;45.928;20.078;2023-03-24T10:12:14;15.10;;;5.95;;
71166;SDS011;58864;45.928;20.078;2023-03-24T10:23:26;10.88;;;4.90;;
71166;SDS011;58864;45.928;20.078;2023-03-24T10:30:54;10.18;;;4.40;;
71166;SDS011;58864;45.928;20.078;2023-03-24T10:33:19;11.27;;;5.07;;
71166;SDS011;58864;45.928;20.078;2023-03-24T10:38:31;9.00;;;4.97;;
71166;SDS011;58864;45.928;20.078;2023-03-24T10:40:55;10.73;;;4.23;;
71166;SDS011;58864;45.928;20.078;2023-03-24T10:43:20;7.88;;;3.95;;
71166;SDS011;58864;45.928;20.078;2023-03-24T10:45:47;9.57;;;4.95;;
71166;SDS011;58864;45.928;20.078;2023-03-24T10:48:13;8.67;;;4.63;;
71166;SDS011;58864;45.928;20.078;2023-03-24T10:50:42;8.55;;;3.97;;
71166;SDS011;58864;45.928;20.078;2023-03-24T10:53:10;9.20;;;4.10;;
71166;SDS011;58864;45.928;20.078;2023-03-24T10:55:40;8.00;;;4.30;;
71166;SDS011;58864;45.928;20.078;2023-03-24T10:58:12;9.88;;;4.10;;
71166;SDS011;58864;45.928;20.078;2023-03-24T11:00:43;7.30;;;3.70;;
71166;SDS011;58864;45.928;20.078;2023-03-24T11:03:12;7.88;;;4.10;;
71166;SDS011;58864;45.928;20.078;2023-03-24T11:05:40;6.90;;;3.20;;
71166;SDS011;58864;45.928;20.078;2023-03-24T11:10:54;9.50;;;3.60;;
71166;SDS011;58864;45.928;20.078;2023-03-24T11:13:19;8.37;;;3.20;;
71166;SDS011;58864;45.928;20.078;2023-03-24T11:15:53;6.57;;;3.60;;
71166;SDS011;58864;45.928;20.078;2023-03-24T11:18:20;6.47;;;3.38;;
71166;SDS011;58864;45.928;20.078;2023-03-24T11:20:46;7.57;;;3.47;;
71166;SDS011;58864;45.928;20.078;2023-03-24T11:23:18;7.77;;;3.97;;
71166;SDS011;58864;45.928;20.078;2023-03-24T11:25:46;12.98;;;3.60;;
71166;SDS011;58864;45.928;20.078;2023-03-24T11:28:17;8.05;;;3.67;;
71166;SDS011;58864;45.928;20.078;2023-03-24T11:30:45;8.70;;;4.25;;
71166;SDS011;58864;45.928;20.078;2023-03-24T11:33:13;8.77;;;3.90;;
71166;SDS011;58864;45.928;20.078;2023-03-24T11:35:46;9.10;;;3.97;;
71166;SDS011;58864;45.928;20.078;2023-03-24T11:38:15;11.02;;;3.60;;
71166;SDS011;58864;45.928;20.078;2023-03-24T11:40:51;12.27;;;3.60;;
71166;SDS011;58864;45.928;20.078;2023-03-24T11:43:20;7.07;;;3.80;;
71166;SDS011;58864;45.928;20.078;2023-03-24T11:45:45;7.32;;;3.75;;
71166;SDS011;58864;45.928;20.078;2023-03-24T11:48:25;6.93;;;3.60;;
71166;SDS011;58864;45.928;20.078;2023-03-24T11:51:05;12.60;;;3.50;;
71166;SDS011;58864;45.928;20.078;2023-03-24T11:53:43;7.55;;;3.88;;
71166;SDS011;58864;45.928;20.078;2023-03-24T11:56:16;7.53;;;3.60;;
71166;SDS011;58864;45.928;20.078;2023-03-24T11:58:50;7.32;;;3.83;;
71166;SDS011;58864;45.928;20.078;2023-03-24T12:14:12;6.85;;;3.28;;
71166;SDS011;58864;45.928;20.078;2023-03-24T12:16:46;7.30;;;4.10;;
71166;SDS011;58864;45.928;20.078;2023-03-24T12:27:36;9.75;;;3.78;;
71166;SDS011;58864;45.928;20.078;2023-03-24T12:30:17;8.57;;;4.20;;
71166;SDS011;58864;45.928;20.078;2023-03-24T12:35:39;6.97;;;3.60;;
71166;SDS011;58864;45.928;20.078;2023-03-24T12:38:29;9.60;;;3.47;;
71166;SDS011;58864;45.928;20.078;2023-03-24T12:46:19;8.20;;;4.35;;
71166;SDS011;58864;45.928;20.078;2023-03-24T12:48:58;9.80;;;4.00;;
71166;SDS011;58864;45.928;20.078;2023-03-24T12:56:53;8.95;;;3.97;;
71166;SDS011;58864;45.928;20.078;2023-03-24T13:02:00;8.73;;;3.20;;
71166;SDS011;58864;45.928;20.078;2023-03-24T13:04:31;7.25;;;3.70;;
71166;SDS011;58864;45.928;20.078;2023-03-24T13:07:10;11.00;;;3.50;;
71166;SDS011;58864;45.928;20.078;2023-03-24T13:12:15;7.32;;;3.70;;
71166;SDS011;58864;45.928;20.078;2023-03-24T13:15:03;9.33;;;4.00;;
71166;SDS011;58864;45.928;20.078;2023-03-24T13:17:31;8.20;;;3.65;;
71166;SDS011;58864;45.928;20.078;2023-03-24T13:20:00;7.90;;;3.88;;
71166;SDS011;58864;45.928;20.078;2023-03-24T13:22:29;10.95;;;4.00;;
71166;SDS011;58864;45.928;20.078;2023-03-24T13:24:54;8.77;;;3.87;;
71166;SDS011;58864;45.928;20.078;2023-03-24T13:27:25;8.73;;;4.00;;
71166;SDS011;58864;45.928;20.078;2023-03-24T13:32:38;8.52;;;4.50;;
71166;SDS011;58864;45.928;20.078;2023-03-24T13:35:14;10.23;;;4.40;;
71166;SDS011;58864;45.928;20.078;2023-03-24T13:37:48;9.63;;;4.60;;
71166;SDS011;58864;45.928;20.078;2023-03-24T13:40:48;11.27;;;5.68;;
71166;SDS011;58864;45.928;20.078;2023-03-24T13:43:19;16.33;;;5.75;;
71166;SDS011;58864;45.928;20.078;2023-03-24T13:45:57;11.57;;;4.20;;
71166;SDS011;58864;45.928;20.078;2023-03-24T13:48:25;13.40;;;4.78;;
71166;SDS011;58864;45.928;20.078;2023-03-24T13:50:55;10.30;;;5.20;;
71166;SDS011;58864;45.928;20.078;2023-03-24T13:53:27;13.88;;;7.35;;
71166;SDS011;58864;45.928;20.078;2023-03-24T13:56:03;12.63;;;6.65;;
71166;SDS011;58864;45.928;20.078;2023-03-24T13:58:43;12.15;;;6.38;;
71166;SDS011;58864;45.928;20.078;2023-03-24T14:01:17;10.18;;;4.60;;
71166;SDS011;58864;45.928;20.078;2023-03-24T14:04:13;10.23;;;4.80;;
71166;SDS011;58864;45.928;20.078;2023-03-24T14:06:43;12.02;;;5.47;;
71166;SDS011;58864;45.928;20.078;2023-03-24T14:09:25;9.23;;;4.70;;
71166;SDS011;58864;45.928;20.078;2023-03-24T14:14:19;9.37;;;4.37;;
71166;SDS011;58864;45.928;20.078;2023-03-24T14:20:22;11.50;;;4.45;;
71166;SDS011;58864;45.928;20.078;2023-03-24T14:22:21;7.97;;;4.20;;
71166;SDS011;58864;45.928;20.078;2023-03-24T14:25:00;11.90;;;4.20;;
71166;SDS011;58864;45.928;20.078;2023-03-24T14:27:31;10.30;;;4.60;;
71166;SDS011;58864;45.928;20.078;2023-03-24T14:29:59;12.55;;;5.55;;
71166;SDS011;58864;45.928;20.078;2023-03-24T14:32:26;9.57;;;4.32;;
71166;SDS011;58864;45.928;20.078;2023-03-24T14:34:55;10.07;;;4.20;;
71166;SDS011;58864;45.928;20.078;2023-03-24T14:37:23;9.05;;;3.85;;
71166;SDS011;58864;45.928;20.078;2023-03-24T14:39:49;12.18;;;4.80;;
71166;SDS011;58864;45.928;20.078;2023-03-24T14:44:57;9.88;;;4.00;;
71166;SDS011;58864;45.928;20.078;2023-03-24T14:47:28;15.20;;;6.10;;
71166;SDS011;58864;45.928;20.078;2023-03-24T14:49:54;11.75;;;5.18;;
71166;SDS011;58864;45.928;20.078;2023-03-24T14:52:24;9.95;;;4.50;;
71166;SDS011;58864;45.928;20.078;2023-03-24T14:54:59;9.73;;;4.60;;
71166;SDS011;58864;45.928;20.078;2023-03-24T14:57:28;12.10;;;4.32;;
71166;SDS011;58864;45.928;20.078;2023-03-24T14:59:56;11.00;;;4.43;;
71166;SDS011;58864;45.928;20.078;2023-03-24T15:05:16;10.93;;;5.38;;
71166;SDS011;58864;45.928;20.078;2023-03-24T15:07:42;11.83;;;4.90;;
71166;SDS011;58864;45.928;20.078;2023-03-24T15:10:14;9.90;;;4.22;;
71166;SDS011;58864;45.928;20.078;2023-03-24T15:12:43;12.48;;;4.60;;
71166;SDS011;58864;45.928;20.078;2023-03-24T15:15:15;9.07;;;4.20;;
71166;SDS011;58864;45.928;20.078;2023-03-24T15:17:45;13.98;;;4.82;;
71166;SDS011;58864;45.928;20.078;2023-03-24T15:22:50;9.45;;;4.63;;
71166;SDS011;58864;45.928;20.078;2023-03-24T15:25:18;11.30;;;4.95;;
71166;SDS011;58864;45.928;20.078;2023-03-24T15:27:48;21.70;;;4.50;;
71166;SDS011;58864;45.928;20.078;2023-03-24T15:30:14;8.52;;;4.28;;
71166;SDS011;58864;45.928;20.078;2023-03-24T15:32:39;9.60;;;3.22;;
71166;SDS011;58864;45.928;20.078;2023-03-24T15:35:09;9.65;;;3.60;;
71166;SDS011;58864;45.928;20.078;2023-03-24T15:37:38;8.10;;;2.70;;
71166;SDS011;58864;45.928;20.078;2023-03-24T15:40:29;7.57;;;3.20;;
71166;SDS011;58864;45.928;20.078;2023-03-24T15:42:55;7.78;;;2.95;;
71166;SDS011;58864;45.928;20.078;2023-03-24T15:45:26;11.40;;;3.40;;
71166;SDS011;58864;45.928;20.078;2023-03-24T15:47:51;10.48;;;3.78;;
71166;SDS011;58864;45.928;20.078;2023-03-24T15:50:27;6.37;;;3.40;;
71166;SDS011;58864;45.928;20.078;2023-03-24T15:52:59;11.20;;;3.67;;
71166;SDS011;58864;45.928;20.078;2023-03-24T15:57:54;11.52;;;4.07;;
71166;SDS011;58864;45.928;20.078;2023-03-24T16:00:23;8.18;;;3.70;;
71166;SDS011;58864;45.928;20.078;2023-03-24T16:02:52;9.57;;;3.80;;
71166;SDS011;58864;45.928;20.078;2023-03-24T16:05:22;14.32;;;3.47;;
71166;SDS011;58864;45.928;20.078;2023-03-24T16:10:54;19.42;;;7.10;;
71166;SDS011;58864;45.928;20.078;2023-03-24T16:13:21;17.58;;;7.30;;
71166;SDS011;58864;45.928;20.078;2023-03-24T16:15:59;22.00;;;8.97;;
71166;SDS011;58864;45.928;20.078;2023-03-24T16:18:33;19.88;;;8.15;;
71166;SDS011;58864;45.928;20.078;2023-03-24T16:20:59;17.70;;;6.90;;
71166;SDS011;58864;45.928;20.078;2023-03-24T16:23:25;14.68;;;6.63;;
71166;SDS011;58864;45.928;20.078;2023-03-24T16:25:50;13.17;;;6.50;;
71166;SDS011;58864;45.928;20.078;2023-03-24T16:28:15;17.75;;;6.88;;
71166;SDS011;58864;45.928;20.078;2023-03-24T16:30:41;20.20;;;9.03;;
71166;SDS011;58864;45.928;20.078;2023-03-24T16:33:07;19.45;;;9.55;;
71166;SDS011;58864;45.928;20.078;2023-03-24T16:35:33;19.77;;;9.02;;
71166;SDS011;58864;45.928;20.078;2023-03-24T16:37:57;16.88;;;8.38;;
71166;SDS011;58864;45.928;20.078;2023-03-24T16:40:44;15.20;;;7.17;;
71166;SDS011;58864;45.928;20.078;2023-03-24T16:43:08;14.05;;;6.75;;
71166;SDS011;58864;45.928;20.078;2023-03-24T16:45:33;17.33;;;7.30;;
71166;SDS011;58864;45.928;20.078;2023-03-24T16:47:58;19.27;;;10.75;;
71166;SDS011;58864;45.928;20.078;2023-03-24T16:50:33;21.60;;;10.93;;
71166;SDS011;58864;45.928;20.078;2023-03-24T16:53:00;49.80;;;22.02;;
71166;SDS011;58864;45.928;20.078;2023-03-24T16:55:24;54.37;;;27.23;;
71166;SDS011;58864;45.928;20.078;2023-03-24T16:57:49;55.63;;;26.47;;
71166;SDS011;58864;45.928;20.078;2023-03-24T17:00:14;63.27;;;29.97;;
71166;SDS011;58864;45.928;20.078;2023-03-24T17:02:38;65.35;;;31.17;;
71166;SDS011;58864;45.928;20.078;2023-03-24T17:05:14;56.10;;;27.40;;